createdAt,value
2022-12-25T00:04:48.757Z,102126.94
2022-12-25T00:09:50.995Z,102119.13
2022-12-25T00:14:53.250Z,102119.81
2022-12-25T00:19:56.666Z,102115.38
2022-12-25T00:24:58.837Z,102110.06
2022-12-25T00:30:01.835Z,102101.31
2022-12-25T00:35:05.691Z,102101.41
2022-12-25T00:40:08.038Z,102102.25
2022-12-25T00:45:10.742Z,102102.16
2022-12-25T00:50:12.985Z,102102.09
2022-12-25T00:55:15.299Z,102088.13
2022-12-25T01:00:17.534Z,102097.88
2022-12-25T01:05:19.614Z,102096.09
2022-12-25T01:10:24.678Z,102099.59
2022-12-25T01:15:26.874Z,102096.00
2022-12-25T01:20:29.062Z,102098.72
2022-12-25T01:25:31.196Z,102102.34
2022-12-25T01:30:33.959Z,102102.34
2022-12-25T01:35:39.714Z,102105.97
2022-12-25T01:40:41.904Z,102089.53
2022-12-25T01:45:48.702Z,102100.66
2022-12-25T01:51:01.810Z,102099.78
2022-12-25T01:56:08.046Z,102094.47
2022-12-25T02:01:11.034Z,102097.03
2022-12-25T02:06:13.208Z,102095.22
2022-12-25T02:11:35.305Z,102100.66
2022-12-25T02:16:57.414Z,102091.81
2022-12-25T02:22:23.276Z,102108.69
2022-12-25T02:27:42.605Z,102108.69
2022-12-25T02:33:15.927Z,102104.34
2022-12-25T02:38:27.405Z,102105.28
2022-12-25T02:43:59.772Z,102107.84
2022-12-25T02:49:27.895Z,102094.66
2022-12-25T02:54:59.342Z,102096.38
2022-12-25T03:00:22.432Z,102088.41
2022-12-25T03:06:02.128Z,102083.84
2022-12-25T03:11:27.639Z,102085.66
2022-12-25T03:16:49.257Z,102079.56
2022-12-25T03:22:11.584Z,102072.47
2022-12-25T03:27:13.800Z,102070.75
2022-12-25T03:32:22.984Z,102072.53
2022-12-25T03:38:12.608Z,102075.28
2022-12-25T03:43:37.355Z,102069.97
2022-12-25T03:49:02.428Z,102063.72
2022-12-25T03:54:27.688Z,102054.03
2022-12-25T03:59:48.384Z,102058.53
2022-12-25T04:05:22.879Z,102053.09
2022-12-25T04:10:43.914Z,102052.25
2022-12-25T04:16:04.339Z,102054.91
2022-12-25T04:21:24.885Z,102050.56
2022-12-25T04:26:45.579Z,102042.97
2022-12-25T04:32:06.150Z,102058.53
2022-12-25T04:37:08.266Z,102043.41
2022-12-25T04:42:10.686Z,102056.69
2022-12-25T04:47:13.296Z,102048.72
2022-12-25T04:52:15.580Z,102053.22
2022-12-25T04:57:17.891Z,102037.72
2022-12-25T05:02:20.268Z,102055.00
2022-12-25T05:07:22.466Z,102057.66
2022-12-25T05:12:24.726Z,102058.53
2022-12-25T05:17:26.993Z,102061.06
2022-12-25T05:22:29.201Z,102064.56
2022-12-25T05:27:31.455Z,102058.41
2022-12-25T05:32:33.782Z,102072.63
2022-12-25T05:37:37.019Z,102075.28
2022-12-25T05:42:39.221Z,102073.59
2022-12-25T05:47:41.730Z,102068.28
2022-12-25T05:52:43.895Z,102080.59
2022-12-25T05:57:46.065Z,102087.63
2022-12-25T06:02:48.409Z,102084.09
2022-12-25T06:07:50.753Z,102086.75
2022-12-25T06:12:52.933Z,102078.91
2022-12-25T06:17:55.072Z,102088.69
2022-12-25T06:22:57.477Z,102086.97
2022-12-25T06:27:59.591Z,102077.56
2022-12-25T06:33:01.784Z,102096.53
2022-12-25T06:38:03.994Z,102094.72
2022-12-25T06:43:06.127Z,102101.97
2022-12-25T06:48:08.233Z,102094.06
2022-12-25T06:53:10.385Z,102094.84
2022-12-25T06:58:12.948Z,102088.56
2022-12-25T07:03:20.322Z,102098.25
2022-12-25T07:08:22.518Z,102096.66
2022-12-25T07:13:26.171Z,102107.34
2022-12-25T07:18:29.135Z,102103.91
2022-12-25T07:23:31.329Z,102100.16
2022-12-25T07:28:34.489Z,102104.50
2022-12-25T07:33:37.075Z,102113.44
2022-12-25T07:38:39.185Z,102127.75
2022-12-25T07:43:41.822Z,102136.56
2022-12-25T07:48:43.980Z,102127.75
2022-12-25T07:53:46.597Z,102140.16
2022-12-25T07:58:49.160Z,102145.47
2022-12-25T08:03:53.485Z,102161.41
2022-12-25T08:08:57.043Z,102157.03
2022-12-25T08:13:59.322Z,102172.97
2022-12-25T08:19:01.656Z,102180.94
2022-12-25T08:24:04.008Z,102183.50
2022-12-25T08:29:06.106Z,102180.84
2022-12-25T08:34:08.257Z,102196.00
2022-12-25T08:39:10.591Z,102203.91
2022-12-25T08:44:13.208Z,102217.09
2022-12-25T08:49:16.623Z,102216.03
2022-12-25T08:54:18.722Z,102231.31
2022-12-25T09:00:16.745Z,102235.78
2022-12-25T09:05:18.714Z,102245.59
2022-12-25T09:10:21.384Z,102253.41
2022-12-25T09:15:23.507Z,102264.81
2022-12-25T09:20:25.757Z,102268.41
2022-12-25T09:25:27.894Z,102273.88
2022-12-25T09:30:30.072Z,102284.50
2022-12-25T09:35:32.289Z,102278.34
2022-12-25T09:40:35.020Z,102280.13
2022-12-25T09:45:38.977Z,102288.97
2022-12-25T09:50:53.442Z,102286.22
2022-12-25T09:56:04.617Z,102278.25
2022-12-25T10:01:20.005Z,102283.56
2022-12-25T10:07:10.209Z,102282.72
2022-12-25T10:12:35.793Z,102277.47
2022-12-25T10:17:49.907Z,102277.31
2022-12-25T10:22:57.523Z,102270.22
2022-12-25T10:28:10.594Z,102258.72
2022-12-25T10:33:17.195Z,102250.84
2022-12-25T10:38:20.543Z,102257.94
2022-12-25T10:43:49.202Z,102249.13
2022-12-25T10:48:55.862Z,102235.78
2022-12-25T10:53:58.530Z,102236.72
2022-12-25T10:59:10.591Z,102229.59
2022-12-25T11:04:35.276Z,102225.22
2022-12-25T11:09:37.460Z,102220.69
2022-12-25T11:14:39.646Z,102217.19
2022-12-25T11:19:52.528Z,102205.69
2022-12-25T11:24:55.375Z,102199.38
2022-12-25T11:30:03.460Z,102208.19
2022-12-25T11:35:13.476Z,102184.19
2022-12-25T11:40:28.022Z,102181.72
2022-12-25T11:45:38.786Z,102174.69
2022-12-25T11:50:57.649Z,102168.50
2022-12-25T11:56:08.725Z,102165.78
2022-12-25T12:01:20.027Z,102161.31
2022-12-25T12:06:40.655Z,102161.25
2022-12-25T12:11:49.982Z,102167.41
2022-12-25T12:16:52.349Z,102169.09
2022-12-25T12:22:00.491Z,102158.59
2022-12-25T12:27:06.816Z,102156.78
2022-12-25T12:32:43.378Z,102155.16
2022-12-25T12:37:50.307Z,102155.06
2022-12-25T12:42:52.726Z,102151.47
2022-12-25T12:47:55.369Z,102136.38
2022-12-25T12:52:58.739Z,102136.38
2022-12-25T12:58:06.379Z,102129.25
2022-12-25T13:03:32.342Z,102135.34
2022-12-25T13:09:09.922Z,102142.38
2022-12-25T13:14:21.899Z,102137.16
2022-12-25T13:19:27.811Z,102129.19
2022-12-25T13:24:32.721Z,102123.88
2022-12-25T13:29:38.232Z,102124.63
2022-12-25T13:34:42.830Z,102135.19
2022-12-25T13:39:55.235Z,102141.53
2022-12-25T13:45:06.557Z,102149.47
2022-12-25T13:50:21.413Z,102149.47
2022-12-25T13:55:29.225Z,102168.00
2022-12-25T14:00:37.068Z,102176.03
2022-12-25T14:05:42.772Z,102172.53
2022-12-25T14:10:50.644Z,102173.31
2022-12-25T14:15:55.899Z,102174.25
2022-12-25T14:21:01.921Z,102177.75
2022-12-25T14:26:04.180Z,102182.13
2022-12-25T14:31:06.350Z,102180.41
2022-12-25T14:36:13.032Z,102178.63
2022-12-25T14:41:24.187Z,102182.13
2022-12-25T14:46:30.945Z,102191.91
2022-12-25T14:51:35.582Z,102183.81
2022-12-25T14:56:39.461Z,102191.72
2022-12-25T15:01:42.253Z,102197.88
2022-12-25T15:07:07.470Z,102190.75
2022-12-25T15:12:09.946Z,102202.31
2022-12-25T15:17:25.277Z,102207.63
2022-12-25T15:22:37.470Z,102193.41
2022-12-25T15:27:49.771Z,102193.41
2022-12-25T15:32:52.060Z,102189.81
2022-12-25T15:37:54.338Z,102195.22
2022-12-25T15:42:56.884Z,102193.41
2022-12-25T15:47:59.398Z,102202.25
2022-12-25T15:53:01.534Z,102198.66
2022-12-25T15:58:03.678Z,102196.84
2022-12-25T16:03:06.072Z,102201.38
2022-12-25T16:08:09.395Z,102197.88
2022-12-25T16:13:11.610Z,102201.31
2022-12-25T16:18:13.811Z,102200.38
2022-12-25T16:23:16.103Z,102205.69
2022-12-25T16:28:18.334Z,102207.56
2022-12-25T16:33:20.441Z,102200.44
2022-12-25T16:38:22.615Z,102203.97
2022-12-25T16:43:25.484Z,102202.31
2022-12-25T16:48:27.662Z,102204.91
2022-12-25T16:53:30.364Z,102205.84
2022-12-25T16:58:32.713Z,102209.34
2022-12-25T17:03:35.583Z,102201.38
2022-12-25T17:08:37.899Z,102210.22
2022-12-25T17:13:40.083Z,102210.03
2022-12-25T17:18:42.841Z,102208.34
2022-12-25T17:23:45.348Z,102220.75
2022-12-25T17:28:47.714Z,102237.63
2022-12-25T17:33:49.901Z,102234.97
2022-12-25T17:38:52.162Z,102238.56
2022-12-25T17:43:54.561Z,102251.78
2022-12-25T17:48:58.523Z,102253.66
2022-12-25T17:54:05.701Z,102261.53
2022-12-25T17:59:10.809Z,102260.59
2022-12-25T18:04:13.231Z,102261.53
2022-12-25T18:09:15.629Z,102263.16
2022-12-25T18:14:17.933Z,102270.38
2022-12-25T18:19:20.068Z,102274.91
2022-12-25T18:24:22.225Z,102281.06
2022-12-25T18:29:24.298Z,102286.41
2022-12-25T18:34:26.463Z,102286.41
2022-12-25T18:39:33.142Z,102287.25
2022-12-25T18:44:35.394Z,102288.88
2022-12-25T18:49:37.608Z,102282.22
2022-12-25T18:54:39.780Z,102285.44
2022-12-25T18:59:42.282Z,102286.75
2022-12-25T19:04:44.695Z,102305.84
2022-12-25T19:09:46.961Z,102303.28
2022-12-25T19:14:49.383Z,102291.19
2022-12-25T19:19:51.596Z,102308.50
2022-12-25T19:24:53.713Z,102306.78
2022-12-25T19:29:55.883Z,102305.84
2022-12-25T19:34:58.051Z,102312.97
2022-12-25T19:40:00.254Z,102321.78
2022-12-25T19:45:03.344Z,102329.75
2022-12-25T19:50:05.917Z,102334.22
2022-12-25T19:55:08.506Z,102327.09
2022-12-25T20:00:10.953Z,102342.09
2022-12-25T20:05:15.733Z,102335.84
2022-12-25T20:10:17.870Z,102343.91
2022-12-25T20:15:20.452Z,102336.94
2022-12-25T20:20:22.547Z,102351.00
2022-12-25T20:25:25.693Z,102352.72
2022-12-25T20:30:28.724Z,102351.28
2022-12-25T20:35:31.115Z,102371.31
2022-12-25T20:40:52.882Z,102359.06
2022-12-25T20:45:55.639Z,102365.16
2022-12-25T20:51:12.859Z,102367.81
2022-12-25T20:56:17.438Z,102367.72
2022-12-25T21:01:19.591Z,102366.09
2022-12-25T21:06:22.909Z,102375.00
2022-12-25T21:11:25.121Z,102366.16
2022-12-25T21:16:27.385Z,102375.00
2022-12-25T21:21:29.467Z,102380.31
2022-12-25T21:26:34.642Z,102375.84
2022-12-25T21:31:56.710Z,102386.47
2022-12-25T21:36:58.883Z,102386.56
2022-12-25T21:42:01.067Z,102371.91
2022-12-25T21:47:03.365Z,102389.22
2022-12-25T21:52:08.535Z,102390.06
2022-12-25T21:57:10.671Z,102394.44
2022-12-25T22:02:12.970Z,102404.13
2022-12-25T22:07:18.018Z,102415.69
2022-12-25T22:12:41.597Z,102405.16
2022-12-25T22:18:02.005Z,102412.25
2022-12-25T22:23:04.756Z,102411.44
2022-12-25T22:28:08.646Z,102405.59
2022-12-25T22:33:10.516Z,102421.34
2022-12-25T22:38:12.665Z,102414.16
2022-12-25T22:43:14.794Z,102423.84
2022-12-25T22:48:17.006Z,102410.56
2022-12-25T22:53:19.476Z,102417.50
2022-12-25T22:58:21.653Z,102411.44
2022-12-25T23:03:23.832Z,102416.81
2022-12-25T23:08:26.013Z,102417.69
2022-12-25T23:13:46.459Z,102416.81
2022-12-25T23:19:17.934Z,102407.13
2022-12-25T23:24:38.690Z,102411.56
2022-12-25T23:29:40.874Z,102403.63
2022-12-25T23:34:45.120Z,102415.97
2022-12-25T23:39:48.349Z,102412.44
2022-12-25T23:44:50.461Z,102421.28
2022-12-25T23:49:52.681Z,102427.44
2022-12-25T23:54:54.812Z,102439.78
2022-12-25T23:59:56.863Z,102429.16
